Time;durP1;ratioP1;P1;durP2;ratioP2;P2;SDS_P1;SDS_P2;PMS_P1;PMS_P2;Temp;Humidity;BMP_temperature;BMP_pressure;BME280_temperature;BME280_humidity;BME280_pressure;Samples;Min_cycle;Max_cycle;Signal;HPM_P1;HPM_P2
2023/03/19 00:01:25;;;;;;;;;;;13.60;74.10;;;;;;5091007;28;20379;-29
2023/03/19 00:03:51;;;;;;;;;;;13.50;74.30;;;;;;5092585;28;19916;-32
2023/03/19 00:06:16;;;;;;;;;;;13.50;74.40;;;;;;5092580;28;19919;-31
2023/03/19 00:08:42;;;;;;;;;;;13.50;74.60;;;;;;5092274;28;20395;-33
2023/03/19 00:11:08;;;;;;;;;;;13.50;74.80;;;;;;5092328;28;19965;-29
2023/03/19 00:13:34;;;;;;;;;;;13.40;75.00;;;;;;5092244;28;19918;-30
2023/03/19 00:16:00;;;;;;;;;;;13.40;75.10;;;;;;5092337;28;20329;-35
2023/03/19 00:18:25;;;;;;;;;;;13.40;75.20;;;;;;5092066;28;19916;-30
2023/03/19 00:20:51;;;;;;;;;;;13.40;75.40;;;;;;5092081;28;20264;-33
2023/03/19 00:23:16;;;;;;;;;;;13.30;75.40;;;;;;5092349;28;20003;-32
2023/03/19 00:25:42;;;;;;;;;;;13.30;75.60;;;;;;5092053;28;20328;-30
2023/03/19 00:28:08;;;;;;;;;;;13.30;75.70;;;;;;5091966;28;20317;-31
2023/03/19 00:30:34;;;;;;;;;;;13.30;75.80;;;;;;5091940;28;19916;-31
2023/03/19 00:33:00;;;;;;;;;;;13.20;75.80;;;;;;5090058;28;19919;-29
2023/03/19 00:35:25;;;;;;;;;;;13.20;75.90;;;;;;5091703;28;19912;-28
2023/03/19 00:37:51;;;;;;;;;;;13.20;76.00;;;;;;5091951;28;19916;-29
2023/03/19 00:40:17;;;;;;;;;;;13.10;76.10;;;;;;5092097;28;20268;-30
2023/03/19 00:42:43;;;;;;;;;;;13.10;76.10;;;;;;5091780;28;20375;-29
2023/03/19 00:45:09;;;;;;;;;;;13.10;76.20;;;;;;5091844;28;19918;-32
2023/03/19 00:47:35;;;;;;;;;;;13.10;76.20;;;;;;5091635;28;19912;-30
2023/03/19 00:50:01;;;;;;;;;;;13.10;76.30;;;;;;5091807;28;19916;-31
2023/03/19 00:52:26;;;;;;;;;;;13.10;76.40;;;;;;5091624;28;19923;-31
2023/03/19 00:54:52;;;;;;;;;;;13.10;76.40;;;;;;5091636;28;20380;-35
2023/03/19 00:57:17;;;;;;;;;;;13.10;76.50;;;;;;5091699;28;19957;-30
2023/03/19 00:59:43;;;;;;;;;;;13.10;76.50;;;;;;5091595;28;20026;-32
2023/03/19 01:02:09;;;;;;;;;;;13.10;76.50;;;;;;5091737;28;19912;-35
2023/03/19 01:04:35;;;;;;;;;;;13.10;76.50;;;;;;5091474;28;19919;-34
2023/03/19 01:07:00;;;;;;;;;;;13.00;76.60;;;;;;5091437;28;19915;-30
2023/03/19 01:09:26;;;;;;;;;;;13.00;76.70;;;;;;5091563;28;19965;-29
2023/03/19 01:11:51;;;;;;;;;;;13.00;76.80;;;;;;5091476;28;20007;-30
2023/03/19 01:14:17;;;;;;;;;;;12.90;76.80;;;;;;5091433;28;20337;-30
2023/03/19 01:16:42;;;;;;;;;;;12.90;76.90;;;;;;5091594;28;20124;-36
2023/03/19 01:19:08;;;;;;;;;;;12.90;76.90;;;;;;5091680;28;20271;-31
2023/03/19 01:21:35;;;;;;;;;;;12.90;77.00;;;;;;5091613;28;19916;-31
2023/03/19 01:24:00;;;;;;;;;;;12.90;77.10;;;;;;5091362;28;20018;-32
2023/03/19 01:26:26;;;;;;;;;;;12.90;77.20;;;;;;5091239;28;19960;-27
2023/03/19 01:28:52;;;;;;;;;;;12.90;77.20;;;;;;5091321;28;20019;-31
2023/03/19 01:31:17;;;;;;;;;;;12.90;77.30;;;;;;5091081;28;19967;-28
2023/03/19 01:33:43;;;;;;;;;;;12.80;77.20;;;;;;5089863;28;20330;-30
2023/03/19 01:36:09;;;;;;;;;;;12.80;77.30;;;;;;5091219;28;19912;-30
2023/03/19 01:38:35;;;;;;;;;;;12.80;77.30;;;;;;5091098;28;19966;-34
2023/03/19 01:41:01;;;;;;;;;;;12.80;77.50;;;;;;5089839;28;19959;-31
2023/03/19 01:43:27;;;;;;;;;;;12.80;77.50;;;;;;5090991;28;19977;-28
2023/03/19 01:45:58;;;;;;;;;;;12.70;77.50;;;;;;5092196;28;19920;-32
2023/03/19 01:48:43;;;;;;;;;;;12.70;77.60;;;;;;5095159;28;19912;-33
2023/03/19 01:51:10;;;;;;;;;;;12.60;77.70;;;;;;5095142;28;20294;-32
2023/03/19 01:53:38;;;;;;;;;;;12.60;77.90;;;;;;5095128;28;20309;-37
2023/03/19 01:56:24;;;;;;;;;;;12.50;78.00;;;;;;5095229;28;19912;-30
2023/03/19 01:58:51;;;;;;;;;;;12.50;78.10;;;;;;5087432;28;20340;-33
2023/03/19 02:01:17;;;;;;;;;;;12.50;78.20;;;;;;5094781;28;20007;-29
2023/03/19 02:03:43;;;;;;;;;;;12.50;78.30;;;;;;5095191;28;20363;-34
2023/03/19 02:06:09;;;;;;;;;;;12.40;78.30;;;;;;5094587;28;19916;-27
2023/03/19 02:08:36;;;;;;;;;;;12.50;78.50;;;;;;5094318;28;20249;-33
2023/03/19 02:11:01;;;;;;;;;;;12.50;78.50;;;;;;5094339;28;19916;-34
2023/03/19 02:13:27;;;;;;;;;;;12.50;78.40;;;;;;5094261;28;20345;-29
2023/03/19 02:15:53;;;;;;;;;;;12.50;78.50;;;;;;5094100;28;19912;-34
2023/03/19 02:18:19;;;;;;;;;;;12.50;78.40;;;;;;5092904;28;19912;-33
2023/03/19 02:20:54;;;;;;;;;;;12.50;79.10;;;;;;5094136;28;19952;-32
2023/03/19 02:23:20;;;;;;;;;;;12.50;78.40;;;;;;5093955;28;20433;-30
2023/03/19 02:25:45;;;;;;;;;;;12.60;78.50;;;;;;5094282;28;19947;-31
2023/03/19 02:28:13;;;;;;;;;;;12.60;78.50;;;;;;5094094;28;19955;-34
2023/03/19 02:30:39;;;;;;;;;;;12.60;78.50;;;;;;5094314;28;20344;-35
2023/03/19 02:33:04;;;;;;;;;;;12.60;78.50;;;;;;5093751;28;19920;-35
2023/03/19 02:35:31;;;;;;;;;;;12.60;78.50;;;;;;5094242;28;19955;-32
2023/03/19 02:37:57;;;;;;;;;;;12.70;78.60;;;;;;5093915;28;19934;-32
2023/03/19 02:40:28;;;;;;;;;;;12.70;78.50;;;;;;5093786;28;20326;-28
2023/03/19 02:42:53;;;;;;;;;;;12.70;78.60;;;;;;5094159;28;19919;-28
2023/03/19 02:45:20;;;;;;;;;;;12.70;78.60;;;;;;5094270;28;19912;-29
2023/03/19 02:47:45;;;;;;;;;;;12.70;78.60;;;;;;5093825;28;19912;-29
2023/03/19 02:50:11;;;;;;;;;;;12.70;78.60;;;;;;5093717;28;20314;-29
2023/03/19 02:52:37;;;;;;;;;;;12.70;78.60;;;;;;5093787;28;20080;-27
2023/03/19 02:55:02;;;;;;;;;;;12.70;78.80;;;;;;5093503;28;20344;-30
2023/03/19 02:57:28;;;;;;;;;;;12.70;78.80;;;;;;5093100;28;20011;-29
2023/03/19 02:59:53;;;;;;;;;;;12.70;78.80;;;;;;5093379;28;20352;-31
2023/03/19 03:02:19;;;;;;;;;;;12.70;78.80;;;;;;5093387;28;19970;-30
2023/03/19 03:04:45;;;;;;;;;;;12.70;78.80;;;;;;5093478;28;19919;-33
2023/03/19 03:07:11;;;;;;;;;;;12.70;78.80;;;;;;5093635;28;19916;-30
2023/03/19 03:09:36;;;;;;;;;;;12.70;78.90;;;;;;5093398;28;20048;-31
2023/03/19 03:12:02;;;;;;;;;;;12.80;79.00;;;;;;5093282;28;20017;-35
2023/03/19 03:14:27;;;;;;;;;;;12.70;78.90;;;;;;5093168;28;19965;-28
2023/03/19 03:16:53;;;;;;;;;;;12.70;79.00;;;;;;5093284;28;20413;-33
2023/03/19 03:19:18;;;;;;;;;;;12.80;79.00;;;;;;5093058;28;19916;-31
2023/03/19 03:21:44;;;;;;;;;;;12.80;79.10;;;;;;5093063;28;19912;-33
2023/03/19 03:24:10;;;;;;;;;;;12.80;79.10;;;;;;5093148;28;19912;-29
2023/03/19 03:26:37;;;;;;;;;;;12.80;79.10;;;;;;5093070;28;19912;-31
2023/03/19 03:29:06;;;;;;;;;;;12.80;79.10;;;;;;5092848;28;19916;-27
2023/03/19 03:31:32;;;;;;;;;;;12.80;79.10;;;;;;5092674;28;19920;-26
2023/03/19 03:33:57;;;;;;;;;;;12.80;79.30;;;;;;5092879;28;19919;-31
2023/03/19 03:36:23;;;;;;;;;;;12.80;79.30;;;;;;5092673;28;19912;-28
2023/03/19 03:38:49;;;;;;;;;;;12.70;79.30;;;;;;5092604;28;19923;-28
2023/03/19 03:41:14;;;;;;;;;;;12.80;79.40;;;;;;5092723;28;19935;-29
2023/03/19 03:43:40;;;;;;;;;;;12.70;79.30;;;;;;5092739;28;20006;-32
2023/03/19 03:46:07;;;;;;;;;;;12.70;79.40;;;;;;5092480;28;19919;-33
2023/03/19 03:48:33;;;;;;;;;;;12.70;79.40;;;;;;5091099;28;19962;-32
2023/03/19 03:50:59;;;;;;;;;;;12.70;79.50;;;;;;5092463;28;19955;-27
2023/03/19 03:53:25;;;;;;;;;;;12.70;79.50;;;;;;5092708;28;20358;-35
2023/03/19 03:55:51;;;;;;;;;;;12.80;79.60;;;;;;5092536;28;19916;-32
2023/03/19 03:58:16;;;;;;;;;;;12.80;79.60;;;;;;5092207;28;20343;-29
2023/03/19 04:00:42;;;;;;;;;;;12.70;79.60;;;;;;5092250;28;19916;-32
2023/03/19 04:03:07;;;;;;;;;;;12.70;79.70;;;;;;5092808;28;19919;-30
2023/03/19 04:05:33;;;;;;;;;;;12.60;79.80;;;;;;5092112;28;19955;-31
2023/03/19 04:07:58;;;;;;;;;;;12.60;79.90;;;;;;5091584;28;19912;-27
2023/03/19 04:10:24;;;;;;;;;;;12.60;80.00;;;;;;5091860;28;19964;-29
2023/03/19 04:12:50;;;;;;;;;;;12.60;80.00;;;;;;5092746;28;20336;-30
2023/03/19 04:15:15;;;;;;;;;;;12.60;80.00;;;;;;5090930;28;19912;-27
2023/03/19 04:17:41;;;;;;;;;;;12.60;80.00;;;;;;5092481;28;19939;-30
2023/03/19 04:20:07;;;;;;;;;;;12.60;80.00;;;;;;5092095;28;20016;-29
2023/03/19 04:22:33;;;;;;;;;;;12.70;80.10;;;;;;5092228;28;20372;-29
2023/03/19 04:24:58;;;;;;;;;;;12.70;80.00;;;;;;5092357;28;19931;-26
2023/03/19 04:27:24;;;;;;;;;;;12.70;80.00;;;;;;5092106;28;19912;-31
2023/03/19 04:29:49;;;;;;;;;;;12.70;80.10;;;;;;5092078;28;19962;-28
2023/03/19 04:32:15;;;;;;;;;;;12.70;80.00;;;;;;5091967;28;19920;-31
2023/03/19 04:34:41;;;;;;;;;;;12.70;80.10;;;;;;5092258;28;20019;-32
2023/03/19 04:37:09;;;;;;;;;;;12.60;80.10;;;;;;5092061;28;20040;-32
2023/03/19 04:39:35;;;;;;;;;;;12.60;80.20;;;;;;5092033;28;19916;-28
2023/03/19 04:42:00;;;;;;;;;;;12.60;80.30;;;;;;5091938;28;19916;-28
2023/03/19 04:44:26;;;;;;;;;;;12.60;80.40;;;;;;5091707;28;20371;-28
2023/03/19 04:46:51;;;;;;;;;;;12.60;80.40;;;;;;5091851;28;19912;-32
2023/03/19 04:49:17;;;;;;;;;;;12.60;80.50;;;;;;5092080;28;20379;-31
2023/03/19 04:51:42;;;;;;;;;;;12.50;80.50;;;;;;5091763;28;19912;-30
2023/03/19 04:54:08;;;;;;;;;;;12.50;80.60;;;;;;5092063;28;19912;-32
2023/03/19 04:56:34;;;;;;;;;;;12.50;80.60;;;;;;5092039;28;19912;-28
2023/03/19 04:58:59;;;;;;;;;;;12.50;80.60;;;;;;5091576;28;20252;-29
2023/03/19 05:01:25;;;;;;;;;;;12.50;80.70;;;;;;5091465;28;19912;-34
2023/03/19 05:03:51;;;;;;;;;;;12.50;80.60;;;;;;5091940;28;19982;-32
2023/03/19 05:06:18;;;;;;;;;;;12.50;80.60;;;;;;5091537;28;20338;-30
2023/03/19 05:08:44;;;;;;;;;;;12.50;80.60;;;;;;5091467;28;19916;-27
2023/03/19 05:11:10;;;;;;;;;;;12.50;80.70;;;;;;5091527;28;20018;-32
2023/03/19 05:13:35;;;;;;;;;;;12.50;80.70;;;;;;5091516;28;19962;-29
2023/03/19 05:16:02;;;;;;;;;;;12.40;80.80;;;;;;5091439;28;20364;-27
2023/03/19 05:18:28;;;;;;;;;;;12.40;80.80;;;;;;5091720;28;19981;-26
2023/03/19 05:20:54;;;;;;;;;;;12.40;80.80;;;;;;5091377;28;20379;-27
2023/03/19 05:23:19;;;;;;;;;;;12.40;80.90;;;;;;5091631;28;20408;-28
2023/03/19 05:25:45;;;;;;;;;;;12.40;81.00;;;;;;5091325;28;19956;-30
2023/03/19 05:28:11;;;;;;;;;;;12.40;81.10;;;;;;5090108;28;20405;-28
2023/03/19 05:30:36;;;;;;;;;;;12.40;81.10;;;;;;5091632;28;19923;-29
2023/03/19 05:33:02;;;;;;;;;;;12.40;81.10;;;;;;5091262;28;20015;-29
2023/03/19 05:35:29;;;;;;;;;;;12.40;81.20;;;;;;5091245;28;20375;-32
2023/03/19 05:37:54;;;;;;;;;;;12.40;81.20;;;;;;5091254;28;19912;-31
2023/03/19 05:40:21;;;;;;;;;;;12.40;81.20;;;;;;5091214;28;19938;-29
2023/03/19 05:42:46;;;;;;;;;;;12.40;81.20;;;;;;5091513;28;19920;-32
2023/03/19 05:45:12;;;;;;;;;;;12.40;81.20;;;;;;5091391;28;19912;-30
2023/03/19 05:47:38;;;;;;;;;;;12.30;81.20;;;;;;5091143;28;20260;-32
2023/03/19 05:50:04;;;;;;;;;;;12.40;81.30;;;;;;5091140;28;19989;-36
2023/03/19 05:52:29;;;;;;;;;;;12.40;81.20;;;;;;5091458;28;19912;-30
2023/03/19 05:54:55;;;;;;;;;;;12.40;81.20;;;;;;5091064;28;20031;-31
2023/03/19 05:57:20;;;;;;;;;;;12.40;81.20;;;;;;5089668;28;20363;-27
2023/03/19 05:59:46;;;;;;;;;;;12.40;81.30;;;;;;5091259;28;19967;-31
2023/03/19 06:02:12;;;;;;;;;;;12.40;81.30;;;;;;5091093;28;19913;-35
2023/03/19 06:04:37;;;;;;;;;;;12.40;81.90;;;;;;5091189;28;20314;-30
2023/03/19 06:07:03;;;;;;;;;;;12.40;81.90;;;;;;5091329;28;20325;-34
2023/03/19 06:09:28;;;;;;;;;;;12.40;81.30;;;;;;5090758;28;19912;-30
2023/03/19 06:11:54;;;;;;;;;;;12.40;81.30;;;;;;5091208;28;20010;-33
2023/03/19 06:14:19;;;;;;;;;;;12.40;81.30;;;;;;5090716;28;19912;-30
2023/03/19 06:16:45;;;;;;;;;;;12.40;81.30;;;;;;5090698;28;19974;-36
2023/03/19 06:19:11;;;;;;;;;;;12.40;81.30;;;;;;5090954;28;19920;-28
2023/03/19 06:21:36;;;;;;;;;;;12.40;81.40;;;;;;5090898;28;19920;-28
2023/03/19 06:24:02;;;;;;;;;;;12.50;81.40;;;;;;5090845;28;19916;-30
2023/03/19 06:26:27;;;;;;;;;;;12.40;81.30;;;;;;5090867;28;19956;-35
2023/03/19 06:28:53;;;;;;;;;;;12.50;81.50;;;;;;5090622;28;19922;-33
2023/03/19 06:31:19;;;;;;;;;;;12.50;81.40;;;;;;5091085;28;19920;-29
2023/03/19 06:33:44;;;;;;;;;;;12.50;81.30;;;;;;5094505;28;19912;-29
2023/03/19 06:36:10;;;;;;;;;;;12.50;81.20;;;;;;5094495;28;19912;-32
2023/03/19 06:38:35;;;;;;;;;;;12.50;81.30;;;;;;5094387;28;20497;-30
2023/03/19 06:41:01;;;;;;;;;;;12.50;81.20;;;;;;5094489;28;19916;-28
2023/03/19 06:43:27;;;;;;;;;;;12.50;81.30;;;;;;5093917;28;20332;-28
2023/03/19 06:45:52;;;;;;;;;;;12.50;81.30;;;;;;5094297;28;20212;-30
2023/03/19 06:48:18;;;;;;;;;;;12.50;81.30;;;;;;5094145;28;19965;-32
2023/03/19 06:50:46;;;;;;;;;;;12.50;81.30;;;;;;5094235;28;20006;-30
2023/03/19 06:53:12;;;;;;;;;;;12.50;81.20;;;;;;5094122;28;19912;-35
2023/03/19 06:55:38;;;;;;;;;;;12.50;81.30;;;;;;5093962;28;19927;-33
2023/03/19 06:58:04;;;;;;;;;;;12.60;81.30;;;;;;5094149;28;19912;-29
2023/03/19 07:00:30;;;;;;;;;;;12.60;81.30;;;;;;5093515;28;19916;-34
2023/03/19 07:02:55;;;;;;;;;;;12.60;81.30;;;;;;5093647;28;19972;-29
2023/03/19 07:05:21;;;;;;;;;;;12.60;81.30;;;;;;5093679;28;19965;-28
2023/03/19 07:07:46;;;;;;;;;;;12.60;81.30;;;;;;5092244;28;20375;-34
2023/03/19 07:10:12;;;;;;;;;;;12.60;81.30;;;;;;5093607;28;20382;-30
2023/03/19 07:12:38;;;;;;;;;;;12.60;81.30;;;;;;5093469;28;19919;-31
2023/03/19 07:15:03;;;;;;;;;;;12.70;81.30;;;;;;5093545;28;19912;-31
2023/03/19 07:17:29;;;;;;;;;;;12.70;81.20;;;;;;5093366;28;20355;-26
2023/03/19 07:19:54;;;;;;;;;;;12.70;81.20;;;;;;5093402;28;19960;-30
2023/03/19 07:22:20;;;;;;;;;;;12.70;81.20;;;;;;5093229;28;19923;-29
2023/03/19 07:24:46;;;;;;;;;;;12.80;81.30;;;;;;5093390;28;20076;-27
2023/03/19 07:27:11;;;;;;;;;;;12.80;81.20;;;;;;5093339;28;20013;-29
2023/03/19 07:29:37;;;;;;;;;;;12.80;81.20;;;;;;5093280;28;19912;-35
2023/03/19 07:32:02;;;;;;;;;;;12.80;81.20;;;;;;5093318;28;19920;-35
2023/03/19 07:34:28;;;;;;;;;;;12.80;81.20;;;;;;5093233;28;20009;-31
2023/03/19 07:36:53;;;;;;;;;;;12.80;81.20;;;;;;5093545;28;20089;-36
2023/03/19 07:39:19;;;;;;;;;;;12.80;81.10;;;;;;5093084;28;19923;-34
2023/03/19 07:41:47;;;;;;;;;;;12.80;81.10;;;;;;5093086;28;19912;-31
2023/03/19 07:44:13;;;;;;;;;;;12.80;81.20;;;;;;5093408;28;20290;-29
2023/03/19 07:46:38;;;;;;;;;;;12.80;81.20;;;;;;5093266;28;19998;-32
2023/03/19 07:49:04;;;;;;;;;;;12.80;81.20;;;;;;5093221;28;19913;-29
2023/03/19 07:51:30;;;;;;;;;;;12.80;81.10;;;;;;5093161;28;19958;-31
2023/03/19 07:53:55;;;;;;;;;;;12.80;81.00;;;;;;5093091;28;19998;-31
2023/03/19 07:56:21;;;;;;;;;;;12.80;81.10;;;;;;5092854;28;19919;-31
2023/03/19 07:58:46;;;;;;;;;;;12.80;81.00;;;;;;5093611;28;19912;-28
2023/03/19 08:01:12;;;;;;;;;;;12.80;81.00;;;;;;5093597;28;19912;-33
2023/03/19 08:03:38;;;;;;;;;;;12.80;81.00;;;;;;5093189;28;19912;-29
2023/03/19 08:06:04;;;;;;;;;;;12.80;81.00;;;;;;5093455;28;20320;-34
2023/03/19 08:08:29;;;;;;;;;;;12.90;81.10;;;;;;5093330;28;19915;-33
2023/03/19 08:10:55;;;;;;;;;;;13.00;81.00;;;;;;5093193;28;20272;-30
2023/03/19 08:13:21;;;;;;;;;;;13.00;80.80;;;;;;5092887;28;19915;-31
2023/03/19 08:15:48;;;;;;;;;;;13.10;80.80;;;;;;5092984;28;20015;-40
2023/03/19 08:18:13;;;;;;;;;;;13.20;80.70;;;;;;5092455;28;19912;-31
2023/03/19 08:20:39;;;;;;;;;;;13.20;80.60;;;;;;5092742;28;19957;-29
2023/03/19 08:23:04;;;;;;;;;;;13.20;80.50;;;;;;5093025;28;20265;-28
2023/03/19 08:25:31;;;;;;;;;;;13.30;80.40;;;;;;5092240;28;19912;-29
2023/03/19 08:27:57;;;;;;;;;;;13.40;80.30;;;;;;5092523;28;20351;-30
2023/03/19 08:30:23;;;;;;;;;;;13.50;80.10;;;;;;5092187;28;19916;-29
2023/03/19 08:32:49;;;;;;;;;;;13.50;80.00;;;;;;5091966;28;19920;-31
2023/03/19 08:35:15;;;;;;;;;;;13.50;80.00;;;;;;5092349;28;20363;-30
2023/03/19 08:37:40;;;;;;;;;;;13.50;79.70;;;;;;5092328;28;19912;-30
2023/03/19 08:40:06;;;;;;;;;;;13.40;79.80;;;;;;5092012;28;19965;-29
2023/03/19 08:42:32;;;;;;;;;;;13.40;79.80;;;;;;5090579;28;20003;-33
2023/03/19 08:44:57;;;;;;;;;;;13.40;79.90;;;;;;5092006;28;19919;-29
2023/03/19 08:47:23;;;;;;;;;;;13.30;79.80;;;;;;5091988;28;19961;-29
2023/03/19 08:49:52;;;;;;;;;;;13.30;79.80;;;;;;5092082;28;19912;-32
2023/03/19 08:52:20;;;;;;;;;;;13.30;79.80;;;;;;5091811;28;19911;-28
2023/03/19 08:54:46;;;;;;;;;;;13.30;79.80;;;;;;5091669;28;19991;-30
2023/03/19 08:57:11;;;;;;;;;;;13.30;79.70;;;;;;5091763;28;19973;-32
2023/03/19 08:59:37;;;;;;;;;;;13.30;79.80;;;;;;5091711;28;19991;-32
2023/03/19 09:02:02;;;;;;;;;;;13.40;79.70;;;;;;5092085;28;20321;-32
2023/03/19 09:04:28;;;;;;;;;;;13.40;79.60;;;;;;5091894;28;19912;-29
2023/03/19 09:06:54;;;;;;;;;;;13.40;79.50;;;;;;5092129;28;19912;-33
2023/03/19 09:09:20;;;;;;;;;;;13.40;79.50;;;;;;5091833;28;19935;-30
2023/03/19 09:11:46;;;;;;;;;;;13.40;79.60;;;;;;5091745;28;19912;-29
2023/03/19 09:14:12;;;;;;;;;;;13.50;79.50;;;;;;5091650;28;19923;-28
2023/03/19 09:16:38;;;;;;;;;;;13.50;79.40;;;;;;5090275;28;20395;-32
2023/03/19 09:19:04;;;;;;;;;;;13.60;79.10;;;;;;5091890;28;20014;-30
2023/03/19 09:21:30;;;;;;;;;;;13.60;78.90;;;;;;5091595;28;20383;-30
2023/03/19 09:23:55;;;;;;;;;;;13.60;78.80;;;;;;5091858;28;19912;-30
2023/03/19 09:26:21;;;;;;;;;;;13.50;78.80;;;;;;5091620;28;19919;-30
2023/03/19 09:28:46;;;;;;;;;;;13.40;78.60;;;;;;5091840;28;20007;-31
2023/03/19 09:31:12;;;;;;;;;;;13.40;78.90;;;;;;5091391;28;19916;-32
2023/03/19 09:33:37;;;;;;;;;;;13.40;78.80;;;;;;5091715;28;19961;-28
2023/03/19 09:36:03;;;;;;;;;;;13.40;78.70;;;;;;5091522;28;19973;-32
2023/03/19 09:38:29;;;;;;;;;;;13.50;78.50;;;;;;5091669;28;19924;-32
2023/03/19 09:41:03;;;;;;;;;;;13.40;78.50;;;;;;5091270;28;19923;-30
2023/03/19 09:43:49;;;;;;;;;;;13.50;78.60;;;;;;5091238;28;19912;-37
2023/03/19 09:46:21;;;;;;;;;;;13.40;78.60;;;;;;5090841;28;19913;-31
2023/03/19 09:48:58;;;;;;;;;;;13.40;78.60;;;;;;5091398;28;19916;-30
2023/03/19 09:51:39;;;;;;;;;;;13.40;78.70;;;;;;5091316;28;19938;-31
2023/03/19 09:54:26;;;;;;;;;;;13.50;78.70;;;;;;5091591;28;19989;-30
2023/03/19 09:56:51;;;;;;;;;;;13.50;78.60;;;;;;5091155;28;19916;-30
2023/03/19 09:59:17;;;;;;;;;;;13.60;78.40;;;;;;5091428;28;19975;-35
2023/03/19 10:01:47;;;;;;;;;;;13.60;78.30;;;;;;5091273;28;19908;-35
2023/03/19 10:04:29;;;;;;;;;;;13.70;78.20;;;;;;5091105;28;19933;-32
2023/03/19 10:07:01;;;;;;;;;;;13.70;78.20;;;;;;5092688;28;20301;-34
2023/03/19 10:09:29;;;;;;;;;;;13.80;78.00;;;;;;5095425;28;20280;-39
2023/03/19 10:12:20;;;;;;;;;;;13.90;78.00;;;;;;5095012;28;19908;-29
2023/03/19 10:15:04;;;;;;;;;;;13.90;77.90;;;;;;5078535;28;19908;-33
2023/03/19 10:17:36;;;;;;;;;;;14.00;77.50;;;;;;5094811;28;20386;-34
2023/03/19 10:20:21;;;;;;;;;;;14.10;77.40;;;;;;5093481;28;20010;-28
2023/03/19 10:22:49;;;;;;;;;;;14.10;77.20;;;;;;5094997;28;19908;-31
2023/03/19 10:25:19;;;;;;;;;;;14.20;77.80;;;;;;5095142;28;19908;-31
2023/03/19 10:27:49;;;;;;;;;;;14.20;77.00;;;;;;5094739;28;19908;-29
2023/03/19 10:30:15;;;;;;;;;;;14.10;76.70;;;;;;5095006;28;19915;-32
2023/03/19 10:32:42;;;;;;;;;;;14.00;77.00;;;;;;5094502;28;19924;-29
2023/03/19 10:35:17;;;;;;;;;;;14.00;77.00;;;;;;5094767;28;19908;-34
2023/03/19 10:37:42;;;;;;;;;;;14.00;77.10;;;;;;5094572;28;19915;-26
2023/03/19 10:40:19;;;;;;;;;;;14.00;77.20;;;;;;5094827;28;20287;-28
2023/03/19 10:42:52;;;;;;;;;;;14.10;77.10;;;;;;5094846;28;19916;-32
2023/03/19 10:45:27;;;;;;;;;;;14.20;76.80;;;;;;5094741;28;19915;-32
2023/03/19 10:47:54;;;;;;;;;;;14.30;76.80;;;;;;5094692;28;20283;-29
2023/03/19 10:50:24;;;;;;;;;;;14.40;76.70;;;;;;5094595;28;19915;-28
2023/03/19 10:52:51;;;;;;;;;;;14.60;76.30;;;;;;5094356;28;19966;-30
2023/03/19 10:55:22;;;;;;;;;;;14.60;76.00;;;;;;5094566;28;20290;-33
2023/03/19 10:57:49;;;;;;;;;;;14.60;75.80;;;;;;5094192;28;19915;-30
2023/03/19 11:00:21;;;;;;;;;;;14.50;75.90;;;;;;5092765;28;19955;-30
2023/03/19 11:02:53;;;;;;;;;;;14.60;75.90;;;;;;5094514;28;20368;-31
2023/03/19 11:05:29;;;;;;;;;;;14.70;75.90;;;;;;5092673;28;19970;-32
2023/03/19 11:08:01;;;;;;;;;;;14.70;75.70;;;;;;5094018;28;19908;-32
2023/03/19 11:10:28;;;;;;;;;;;14.70;75.50;;;;;;5093884;28;19947;-32
2023/03/19 11:12:59;;;;;;;;;;;14.70;75.60;;;;;;5094074;28;19916;-31
2023/03/19 11:15:32;;;;;;;;;;;14.70;75.40;;;;;;5093987;28;19908;-34
2023/03/19 11:17:59;;;;;;;;;;;14.70;75.60;;;;;;5093533;28;20143;-33
2023/03/19 11:20:35;;;;;;;;;;;14.80;75.60;;;;;;5093819;28;19918;-33
2023/03/19 11:23:03;;;;;;;;;;;14.80;75.40;;;;;;5094082;28;20363;-30
2023/03/19 11:25:32;;;;;;;;;;;14.80;75.10;;;;;;5094038;28;20372;-32
2023/03/19 11:28:00;;;;;;;;;;;14.70;75.10;;;;;;5094072;28;20359;-31
2023/03/19 11:30:27;;;;;;;;;;;14.70;75.30;;;;;;5093990;28;19961;-28
2023/03/19 11:33:10;;;;;;;;;;;14.70;75.20;;;;;;5093544;28;20272;-28
2023/03/19 11:35:35;;;;;;;;;;;14.70;75.10;;;;;;5093510;28;19962;-35
2023/03/19 11:38:01;;;;;;;;;;;14.80;75.10;;;;;;5093726;28;19955;-28
2023/03/19 11:40:35;;;;;;;;;;;14.90;74.90;;;;;;5093413;28;20352;-28
2023/03/19 11:43:20;;;;;;;;;;;15.00;74.50;;;;;;5093342;28;19919;-31
2023/03/19 11:45:54;;;;;;;;;;;15.10;74.30;;;;;;5093576;28;19962;-30
2023/03/19 11:48:40;;;;;;;;;;;15.20;74.10;;;;;;5093463;28;20408;-27
2023/03/19 11:51:20;;;;;;;;;;;15.20;73.90;;;;;;5092722;28;19908;-31
2023/03/19 11:53:58;;;;;;;;;;;15.30;74.00;;;;;;5091866;28;20338;-30
2023/03/19 11:56:46;;;;;;;;;;;15.40;73.60;;;;;;5093412;28;19915;-29
2023/03/19 11:59:18;;;;;;;;;;;15.40;73.50;;;;;;5087280;28;19912;-30
2023/03/19 12:01:56;;;;;;;;;;;15.50;73.60;;;;;;5093075;28;20002;-28
2023/03/19 12:04:35;;;;;;;;;;;15.50;73.50;;;;;;5093126;28;19995;-28
2023/03/19 12:07:19;;;;;;;;;;;15.50;73.60;;;;;;5092897;28;19954;-31
2023/03/19 12:09:54;;;;;;;;;;;15.60;73.40;;;;;;5093224;28;20001;-30
2023/03/19 12:12:32;;;;;;;;;;;15.60;73.30;;;;;;5093043;28;20457;-32
2023/03/19 12:15:11;;;;;;;;;;;15.60;73.20;;;;;;5092813;28;19908;-32
2023/03/19 12:17:42;;;;;;;;;;;15.50;73.30;;;;;;5092662;28;20307;-30
2023/03/19 12:20:14;;;;;;;;;;;15.30;73.10;;;;;;5092991;28;19919;-32
2023/03/19 12:22:45;;;;;;;;;;;15.20;73.60;;;;;;5092557;28;19908;-33
2023/03/19 12:25:23;;;;;;;;;;;15.20;73.60;;;;;;5093052;28;19939;-34
2023/03/19 12:28:03;;;;;;;;;;;15.10;73.60;;;;;;5092980;28;19915;-30
2023/03/19 12:30:32;;;;;;;;;;;15.10;73.90;;;;;;5090415;28;19915;-33
2023/03/19 12:33:27;;;;;;;;;;;15.20;74.00;;;;;;5092488;28;20291;-30
2023/03/19 12:35:54;;;;;;;;;;;15.30;73.90;;;;;;5082723;28;19915;-33
2023/03/19 12:38:40;;;;;;;;;;;15.40;73.60;;;;;;5092618;28;20367;-34
2023/03/19 12:41:11;;;;;;;;;;;15.50;73.50;;;;;;5091807;28;20387;-30
2023/03/19 12:43:45;;;;;;;;;;;15.60;72.60;;;;;;5092790;28;19934;-30
2023/03/19 12:46:17;;;;;;;;;;;15.60;72.20;;;;;;5090838;28;20391;-31
2023/03/19 12:48:45;;;;;;;;;;;15.50;72.50;;;;;;5092405;28;19919;-31
2023/03/19 12:51:12;;;;;;;;;;;15.50;72.90;;;;;;5092175;28;19918;-31
2023/03/19 12:53:45;;;;;;;;;;;15.40;73.00;;;;;;5092454;28;19919;-32
2023/03/19 12:56:20;;;;;;;;;;;15.50;73.00;;;;;;5092419;28;19908;-29
2023/03/19 12:58:45;;;;;;;;;;;15.50;72.90;;;;;;5091966;28;19957;-28
2023/03/19 13:01:13;;;;;;;;;;;15.60;72.90;;;;;;5091854;28;19971;-34
2023/03/19 13:03:52;;;;;;;;;;;15.60;72.70;;;;;;5092207;28;19947;-34
2023/03/19 13:06:20;;;;;;;;;;;15.60;72.10;;;;;;5091966;28;20264;-30
2023/03/19 13:08:50;;;;;;;;;;;15.50;72.00;;;;;;5091854;28;19934;-32
2023/03/19 13:11:24;;;;;;;;;;;15.50;72.40;;;;;;5092183;28;19981;-33
2023/03/19 13:13:53;;;;;;;;;;;15.50;72.40;;;;;;5091882;28;20383;-33
2023/03/19 13:16:18;;;;;;;;;;;15.50;72.50;;;;;;5091778;28;19915;-30
2023/03/19 13:18:59;;;;;;;;;;;15.50;72.10;;;;;;5092090;28;20002;-34
2023/03/19 13:21:29;;;;;;;;;;;15.60;72.10;;;;;;5092022;28;19916;-29
2023/03/19 13:24:04;;;;;;;;;;;15.70;72.20;;;;;;5091949;28;19933;-33
2023/03/19 13:26:30;;;;;;;;;;;15.90;72.10;;;;;;5091567;28;19915;-36
2023/03/19 13:29:00;;;;;;;;;;;16.10;72.30;;;;;;5091654;28;20219;-33
2023/03/19 13:31:27;;;;;;;;;;;16.40;71.40;;;;;;5091613;28;19927;-32
2023/03/19 13:34:01;;;;;;;;;;;16.50;70.80;;;;;;5091712;28;19908;-32
2023/03/19 13:36:29;;;;;;;;;;;16.80;70.50;;;;;;5091687;28;19960;-34
2023/03/19 13:38:56;;;;;;;;;;;16.90;70.10;;;;;;5091562;28;19916;-34
2023/03/19 13:41:34;;;;;;;;;;;17.10;69.70;;;;;;5093520;28;19919;-32
2023/03/19 13:44:17;;;;;;;;;;;17.20;69.60;;;;;;5095756;28;19938;-29
2023/03/19 13:46:46;;;;;;;;;;;17.40;69.40;;;;;;5095897;28;20432;-32
2023/03/19 13:49:24;;;;;;;;;;;17.40;68.20;;;;;;5095625;28;19973;-33
2023/03/19 13:51:50;;;;;;;;;;;17.30;67.70;;;;;;5095916;28;19976;-33
2023/03/19 13:54:24;;;;;;;;;;;17.30;67.90;;;;;;5095839;28;20260;-32
2023/03/19 13:57:00;;;;;;;;;;;17.30;67.80;;;;;;5095441;28;19908;-32
2023/03/19 13:59:29;;;;;;;;;;;17.30;68.20;;;;;;5095749;28;19999;-29
2023/03/19 14:01:56;;;;;;;;;;;17.30;66.70;;;;;;5095753;28;19912;-29
2023/03/19 14:04:24;;;;;;;;;;;17.20;67.60;;;;;;5095550;28;19944;-38
2023/03/19 14:06:52;;;;;;;;;;;17.20;67.50;;;;;;5095682;28;19908;-29
2023/03/19 14:09:36;;;;;;;;;;;17.20;67.50;;;;;;5095466;28;19908;-29
2023/03/19 14:12:09;;;;;;;;;;;17.10;67.60;;;;;;5095320;28;19909;-34
2023/03/19 14:14:38;;;;;;;;;;;17.10;67.80;;;;;;5095518;28;19999;-32
2023/03/19 14:17:04;;;;;;;;;;;17.10;67.30;;;;;;5095048;28;19981;-30
2023/03/19 14:19:32;;;;;;;;;;;17.20;67.80;;;;;;5094841;28;20055;-34
2023/03/19 14:21:58;;;;;;;;;;;17.20;68.00;;;;;;5095390;28;19957;-31